sensor_id;sensor_type;location;lat;lon;timestamp;temperature;humidity
51765;DHT22;37835;53.256;6.456;2024-03-22T00:00:39;9.40;99.90
51765;DHT22;37835;53.256;6.456;2024-03-22T00:03:04;9.30;99.90
51765;DHT22;37835;53.256;6.456;2024-03-22T00:05:30;9.40;99.90
51765;DHT22;37835;53.256;6.456;2024-03-22T00:07:56;9.40;99.90
51765;DHT22;37835;53.256;6.456;2024-03-22T00:10:22;9.30;99.90
51765;DHT22;37835;53.256;6.456;2024-03-22T00:12:49;9.40;99.90
51765;DHT22;37835;53.256;6.456;2024-03-22T00:15:15;9.40;99.90
51765;DHT22;37835;53.256;6.456;2024-03-22T00:17:43;9.40;99.90
51765;DHT22;37835;53.256;6.456;2024-03-22T00:20:09;9.40;99.90
51765;DHT22;37835;53.256;6.456;2024-03-22T00:22:35;9.40;99.90
51765;DHT22;37835;53.256;6.456;2024-03-22T00:25:00;9.40;99.90
51765;DHT22;37835;53.256;6.456;2024-03-22T00:27:26;9.40;99.90
51765;DHT22;37835;53.256;6.456;2024-03-22T00:29:51;9.40;99.90
51765;DHT22;37835;53.256;6.456;2024-03-22T00:32:17;9.40;99.90
51765;DHT22;37835;53.256;6.456;2024-03-22T00:34:43;9.50;99.90
51765;DHT22;37835;53.256;6.456;2024-03-22T00:37:09;9.50;99.90
51765;DHT22;37835;53.256;6.456;2024-03-22T00:39:34;9.50;99.90
51765;DHT22;37835;53.256;6.456;2024-03-22T00:42:01;9.50;99.90
51765;DHT22;37835;53.256;6.456;2024-03-22T00:44:26;9.60;99.90
51765;DHT22;37835;53.256;6.456;2024-03-22T00:46:52;9.60;99.90
51765;DHT22;37835;53.256;6.456;2024-03-22T00:49:18;9.60;99.90
51765;DHT22;37835;53.256;6.456;2024-03-22T00:51:44;9.70;99.90
51765;DHT22;37835;53.256;6.456;2024-03-22T00:54:10;9.60;99.90
51765;DHT22;37835;53.256;6.456;2024-03-22T00:56:36;9.60;99.90
51765;DHT22;37835;53.256;6.456;2024-03-22T00:59:01;9.60;99.90
51765;DHT22;37835;53.256;6.456;2024-03-22T01:01:27;9.60;99.90
51765;DHT22;37835;53.256;6.456;2024-03-22T01:03:53;9.60;99.90
51765;DHT22;37835;53.256;6.456;2024-03-22T01:06:18;9.60;99.90
51765;DHT22;37835;53.256;6.456;2024-03-22T01:08:49;9.60;99.90
51765;DHT22;37835;53.256;6.456;2024-03-22T01:11:15;9.70;99.90
51765;DHT22;37835;53.256;6.456;2024-03-22T01:13:40;9.60;99.90
51765;DHT22;37835;53.256;6.456;2024-03-22T01:16:06;9.70;99.90
51765;DHT22;37835;53.256;6.456;2024-03-22T01:18:35;9.60;99.90
51765;DHT22;37835;53.256;6.456;2024-03-22T01:21:01;9.70;99.90
51765;DHT22;37835;53.256;6.456;2024-03-22T01:23:27;9.60;99.90
51765;DHT22;37835;53.256;6.456;2024-03-22T01:25:52;9.70;99.90
51765;DHT22;37835;53.256;6.456;2024-03-22T01:28:18;9.70;99.90
51765;DHT22;37835;53.256;6.456;2024-03-22T01:30:44;9.70;99.90
51765;DHT22;37835;53.256;6.456;2024-03-22T01:33:09;9.70;99.90
51765;DHT22;37835;53.256;6.456;2024-03-22T01:35:35;9.80;99.90
51765;DHT22;37835;53.256;6.456;2024-03-22T01:38:00;9.80;99.90
51765;DHT22;37835;53.256;6.456;2024-03-22T01:40:26;9.80;99.90
51765;DHT22;37835;53.256;6.456;2024-03-22T01:42:59;9.80;99.90
51765;DHT22;37835;53.256;6.456;2024-03-22T01:45:25;9.80;99.90
51765;DHT22;37835;53.256;6.456;2024-03-22T01:47:54;9.80;99.90
51765;DHT22;37835;53.256;6.456;2024-03-22T01:50:21;9.80;99.90
51765;DHT22;37835;53.256;6.456;2024-03-22T01:52:47;9.90;99.90
51765;DHT22;37835;53.256;6.456;2024-03-22T01:55:13;9.90;99.90
51765;DHT22;37835;53.256;6.456;2024-03-22T01:57:39;9.90;99.90
51765;DHT22;37835;53.256;6.456;2024-03-22T02:00:06;9.90;99.90
51765;DHT22;37835;53.256;6.456;2024-03-22T02:02:34;10.00;99.90
51765;DHT22;37835;53.256;6.456;2024-03-22T02:05:05;9.90;99.90
51765;DHT22;37835;53.256;6.456;2024-03-22T02:07:36;10.00;99.90
51765;DHT22;37835;53.256;6.456;2024-03-22T02:10:02;10.00;99.90
51765;DHT22;37835;53.256;6.456;2024-03-22T02:12:27;10.10;99.90
51765;DHT22;37835;53.256;6.456;2024-03-22T02:14:53;10.10;99.90
51765;DHT22;37835;53.256;6.456;2024-03-22T02:17:19;10.10;99.90
51765;DHT22;37835;53.256;6.456;2024-03-22T02:19:44;10.10;99.90
51765;DHT22;37835;53.256;6.456;2024-03-22T02:22:10;10.10;99.90
51765;DHT22;37835;53.256;6.456;2024-03-22T02:24:36;10.10;99.90
51765;DHT22;37835;53.256;6.456;2024-03-22T02:27:01;10.20;99.90
51765;DHT22;37835;53.256;6.456;2024-03-22T02:29:27;10.20;99.90
51765;DHT22;37835;53.256;6.456;2024-03-22T02:31:53;10.20;99.90
51765;DHT22;37835;53.256;6.456;2024-03-22T02:34:18;10.20;99.90
51765;DHT22;37835;53.256;6.456;2024-03-22T02:36:44;10.20;99.90
51765;DHT22;37835;53.256;6.456;2024-03-22T02:39:12;10.20;99.90
51765;DHT22;37835;53.256;6.456;2024-03-22T02:41:37;10.10;99.90
51765;DHT22;37835;53.256;6.456;2024-03-22T02:44:03;10.20;99.90
51765;DHT22;37835;53.256;6.456;2024-03-22T02:46:29;10.20;99.90
51765;DHT22;37835;53.256;6.456;2024-03-22T02:48:54;10.20;99.90
51765;DHT22;37835;53.256;6.456;2024-03-22T02:51:20;10.20;99.90
51765;DHT22;37835;53.256;6.456;2024-03-22T02:53:46;10.20;99.90
51765;DHT22;37835;53.256;6.456;2024-03-22T02:56:12;10.20;99.90
51765;DHT22;37835;53.256;6.456;2024-03-22T02:58:37;10.20;99.90
51765;DHT22;37835;53.256;6.456;2024-03-22T03:01:03;10.30;99.90
51765;DHT22;37835;53.256;6.456;2024-03-22T03:03:29;10.30;99.90
51765;DHT22;37835;53.256;6.456;2024-03-22T03:05:54;10.20;99.90
51765;DHT22;37835;53.256;6.456;2024-03-22T03:08:21;10.30;99.90
51765;DHT22;37835;53.256;6.456;2024-03-22T03:10:46;10.20;99.90
51765;DHT22;37835;53.256;6.456;2024-03-22T03:13:12;10.30;99.90
51765;DHT22;37835;53.256;6.456;2024-03-22T03:15:38;10.20;99.90
51765;DHT22;37835;53.256;6.456;2024-03-22T03:18:03;10.30;99.90
51765;DHT22;37835;53.256;6.456;2024-03-22T03:20:29;10.30;99.90
51765;DHT22;37835;53.256;6.456;2024-03-22T03:22:55;10.20;99.90
51765;DHT22;37835;53.256;6.456;2024-03-22T03:25:23;10.30;99.90
51765;DHT22;37835;53.256;6.456;2024-03-22T03:27:48;10.20;99.90
51765;DHT22;37835;53.256;6.456;2024-03-22T03:30:14;10.20;99.90
51765;DHT22;37835;53.256;6.456;2024-03-22T03:32:40;10.20;99.90
51765;DHT22;37835;53.256;6.456;2024-03-22T03:35:05;10.20;99.90
51765;DHT22;37835;53.256;6.456;2024-03-22T03:37:31;10.20;99.90
51765;DHT22;37835;53.256;6.456;2024-03-22T03:39:57;9.60;99.90
51765;DHT22;37835;53.256;6.456;2024-03-22T03:42:22;10.20;99.90
51765;DHT22;37835;53.256;6.456;2024-03-22T03:44:48;10.20;99.90
51765;DHT22;37835;53.256;6.456;2024-03-22T03:47:13;10.20;99.90
51765;DHT22;37835;53.256;6.456;2024-03-22T03:49:39;10.20;99.90
51765;DHT22;37835;53.256;6.456;2024-03-22T03:52:05;10.30;99.90
51765;DHT22;37835;53.256;6.456;2024-03-22T03:54:30;10.30;99.90
51765;DHT22;37835;53.256;6.456;2024-03-22T03:56:56;10.30;99.90
51765;DHT22;37835;53.256;6.456;2024-03-22T03:59:22;10.20;99.90
51765;DHT22;37835;53.256;6.456;2024-03-22T04:01:47;10.20;99.90
51765;DHT22;37835;53.256;6.456;2024-03-22T04:04:13;10.30;99.90
51765;DHT22;37835;53.256;6.456;2024-03-22T04:06:39;10.30;99.90
51765;DHT22;37835;53.256;6.456;2024-03-22T04:09:04;10.20;99.90
51765;DHT22;37835;53.256;6.456;2024-03-22T04:11:30;10.20;99.90
51765;DHT22;37835;53.256;6.456;2024-03-22T04:13:56;10.30;99.90
51765;DHT22;37835;53.256;6.456;2024-03-22T04:16:22;10.30;99.90
51765;DHT22;37835;53.256;6.456;2024-03-22T04:18:47;10.30;99.90
51765;DHT22;37835;53.256;6.456;2024-03-22T04:21:13;10.30;99.90
51765;DHT22;37835;53.256;6.456;2024-03-22T04:23:38;10.30;99.90
51765;DHT22;37835;53.256;6.456;2024-03-22T04:26:04;10.20;99.90
51765;DHT22;37835;53.256;6.456;2024-03-22T04:28:30;10.30;99.90
51765;DHT22;37835;53.256;6.456;2024-03-22T04:31:04;10.20;99.90
51765;DHT22;37835;53.256;6.456;2024-03-22T04:33:31;10.30;99.90
51765;DHT22;37835;53.256;6.456;2024-03-22T04:35:57;10.30;99.90
51765;DHT22;37835;53.256;6.456;2024-03-22T04:38:27;10.30;99.90
51765;DHT22;37835;53.256;6.456;2024-03-22T04:40:53;10.30;99.90
51765;DHT22;37835;53.256;6.456;2024-03-22T04:43:19;10.20;99.90
51765;DHT22;37835;53.256;6.456;2024-03-22T04:45:45;10.30;99.90
51765;DHT22;37835;53.256;6.456;2024-03-22T04:48:17;10.30;99.90
51765;DHT22;37835;53.256;6.456;2024-03-22T04:50:42;10.30;99.90
51765;DHT22;37835;53.256;6.456;2024-03-22T04:53:08;10.20;99.90
51765;DHT22;37835;53.256;6.456;2024-03-22T04:55:34;10.30;99.90
51765;DHT22;37835;53.256;6.456;2024-03-22T04:57:59;10.20;99.90
51765;DHT22;37835;53.256;6.456;2024-03-22T05:00:26;10.20;99.90
51765;DHT22;37835;53.256;6.456;2024-03-22T05:02:52;10.20;99.90
51765;DHT22;37835;53.256;6.456;2024-03-22T05:05:18;10.20;99.90
51765;DHT22;37835;53.256;6.456;2024-03-22T05:07:43;10.30;99.90
51765;DHT22;37835;53.256;6.456;2024-03-22T05:10:09;10.20;99.90
51765;DHT22;37835;53.256;6.456;2024-03-22T05:12:35;10.20;99.90
51765;DHT22;37835;53.256;6.456;2024-03-22T05:15:06;10.20;99.90
51765;DHT22;37835;53.256;6.456;2024-03-22T05:17:32;10.20;99.90
51765;DHT22;37835;53.256;6.456;2024-03-22T05:19:59;10.20;99.90
51765;DHT22;37835;53.256;6.456;2024-03-22T05:22:24;10.20;99.90
51765;DHT22;37835;53.256;6.456;2024-03-22T05:24:50;10.20;99.90
51765;DHT22;37835;53.256;6.456;2024-03-22T05:27:17;10.20;99.90
51765;DHT22;37835;53.256;6.456;2024-03-22T05:29:42;10.20;99.90
51765;DHT22;37835;53.256;6.456;2024-03-22T05:32:08;10.20;99.90
51765;DHT22;37835;53.256;6.456;2024-03-22T05:34:34;10.20;99.90
51765;DHT22;37835;53.256;6.456;2024-03-22T05:37:01;10.20;99.90
51765;DHT22;37835;53.256;6.456;2024-03-22T05:39:26;10.20;99.90
51765;DHT22;37835;53.256;6.456;2024-03-22T05:41:52;10.20;99.90
51765;DHT22;37835;53.256;6.456;2024-03-22T05:44:21;10.20;99.90
51765;DHT22;37835;53.256;6.456;2024-03-22T05:46:46;10.20;99.90
51765;DHT22;37835;53.256;6.456;2024-03-22T05:49:12;10.20;99.90
51765;DHT22;37835;53.256;6.456;2024-03-22T05:51:37;10.20;99.90
51765;DHT22;37835;53.256;6.456;2024-03-22T05:54:03;10.10;99.90
51765;DHT22;37835;53.256;6.456;2024-03-22T05:56:29;10.10;99.90
51765;DHT22;37835;53.256;6.456;2024-03-22T05:58:54;10.10;99.90
51765;DHT22;37835;53.256;6.456;2024-03-22T06:01:20;10.10;99.90
51765;DHT22;37835;53.256;6.456;2024-03-22T06:03:46;10.10;99.90
51765;DHT22;37835;53.256;6.456;2024-03-22T06:06:11;10.10;99.90
51765;DHT22;37835;53.256;6.456;2024-03-22T06:08:37;10.10;99.90
51765;DHT22;37835;53.256;6.456;2024-03-22T06:11:06;10.10;99.90
51765;DHT22;37835;53.256;6.456;2024-03-22T06:13:33;10.00;99.90
51765;DHT22;37835;53.256;6.456;2024-03-22T06:15:59;10.00;99.90
51765;DHT22;37835;53.256;6.456;2024-03-22T06:18:24;10.00;99.90
51765;DHT22;37835;53.256;6.456;2024-03-22T06:20:50;10.00;99.90
51765;DHT22;37835;53.256;6.456;2024-03-22T06:23:15;10.00;99.90
51765;DHT22;37835;53.256;6.456;2024-03-22T06:25:41;10.00;99.90
51765;DHT22;37835;53.256;6.456;2024-03-22T06:28:07;10.00;99.90
51765;DHT22;37835;53.256;6.456;2024-03-22T06:30:32;10.00;99.90
51765;DHT22;37835;53.256;6.456;2024-03-22T06:32:58;9.90;99.90
51765;DHT22;37835;53.256;6.456;2024-03-22T06:35:23;10.00;99.90
51765;DHT22;37835;53.256;6.456;2024-03-22T06:37:49;9.90;99.90
51765;DHT22;37835;53.256;6.456;2024-03-22T06:40:16;9.90;99.90
51765;DHT22;37835;53.256;6.456;2024-03-22T06:42:41;9.90;99.90
51765;DHT22;37835;53.256;6.456;2024-03-22T06:45:07;9.80;99.90
51765;DHT22;37835;53.256;6.456;2024-03-22T06:47:33;9.70;99.90
51765;DHT22;37835;53.256;6.456;2024-03-22T06:49:59;9.80;99.90
51765;DHT22;37835;53.256;6.456;2024-03-22T06:52:24;9.90;99.90
51765;DHT22;37835;53.256;6.456;2024-03-22T06:54:50;9.70;99.90
51765;DHT22;37835;53.256;6.456;2024-03-22T06:57:16;9.70;99.90
51765;DHT22;37835;53.256;6.456;2024-03-22T06:59:41;9.80;99.90
51765;DHT22;37835;53.256;6.456;2024-03-22T07:02:07;9.80;99.90
51765;DHT22;37835;53.256;6.456;2024-03-22T07:04:35;9.70;99.90
51765;DHT22;37835;53.256;6.456;2024-03-22T07:07:00;9.70;99.90
51765;DHT22;37835;53.256;6.456;2024-03-22T07:09:26;9.80;99.90
51765;DHT22;37835;53.256;6.456;2024-03-22T07:11:54;9.70;99.90
51765;DHT22;37835;53.256;6.456;2024-03-22T07:14:19;9.80;99.90
51765;DHT22;37835;53.256;6.456;2024-03-22T07:16:45;9.70;99.90
51765;DHT22;37835;53.256;6.456;2024-03-22T07:19:11;9.80;99.90
51765;DHT22;37835;53.256;6.456;2024-03-22T07:21:37;9.70;99.90
51765;DHT22;37835;53.256;6.456;2024-03-22T07:24:04;9.80;99.90
51765;DHT22;37835;53.256;6.456;2024-03-22T07:26:30;9.70;99.90
51765;DHT22;37835;53.256;6.456;2024-03-22T07:28:56;9.50;99.90
51765;DHT22;37835;53.256;6.456;2024-03-22T07:31:21;9.70;99.90
51765;DHT22;37835;53.256;6.456;2024-03-22T07:33:47;9.70;99.90
51765;DHT22;37835;53.256;6.456;2024-03-22T07:36:15;9.80;99.90
51765;DHT22;37835;53.256;6.456;2024-03-22T07:38:42;9.70;99.90
51765;DHT22;37835;53.256;6.456;2024-03-22T07:41:08;9.70;99.90
51765;DHT22;37835;53.256;6.456;2024-03-22T07:43:33;11.90;99.90
51765;DHT22;37835;53.256;6.456;2024-03-22T07:45:59;9.80;99.90
51765;DHT22;37835;53.256;6.456;2024-03-22T07:48:25;9.70;99.90
51765;DHT22;37835;53.256;6.456;2024-03-22T07:51:00;9.40;99.90
51765;DHT22;37835;53.256;6.456;2024-03-22T07:53:27;9.70;99.90
51765;DHT22;37835;53.256;6.456;2024-03-22T07:55:52;9.70;99.90
51765;DHT22;37835;53.256;6.456;2024-03-22T07:58:19;9.70;99.90
51765;DHT22;37835;53.256;6.456;2024-03-22T08:00:45;9.70;99.90
51765;DHT22;37835;53.256;6.456;2024-03-22T08:03:17;9.70;99.90
51765;DHT22;37835;53.256;6.456;2024-03-22T08:05:43;9.70;99.90
51765;DHT22;37835;53.256;6.456;2024-03-22T08:08:08;9.70;99.90
51765;DHT22;37835;53.256;6.456;2024-03-22T08:10:34;9.70;99.90
51765;DHT22;37835;53.256;6.456;2024-03-22T08:13:00;9.70;99.90
51765;DHT22;37835;53.256;6.456;2024-03-22T08:15:26;9.70;99.90
51765;DHT22;37835;53.256;6.456;2024-03-22T08:17:52;9.70;99.90
51765;DHT22;37835;53.256;6.456;2024-03-22T08:20:17;9.70;99.90
51765;DHT22;37835;53.256;6.456;2024-03-22T08:22:43;11.00;99.90
51765;DHT22;37835;53.256;6.456;2024-03-22T08:25:09;9.70;99.90
51765;DHT22;37835;53.256;6.456;2024-03-22T08:27:34;9.70;99.90
51765;DHT22;37835;53.256;6.456;2024-03-22T08:30:00;9.70;99.90
51765;DHT22;37835;53.256;6.456;2024-03-22T08:32:26;9.70;99.90
51765;DHT22;37835;53.256;6.456;2024-03-22T08:34:52;9.80;99.90
51765;DHT22;37835;53.256;6.456;2024-03-22T08:37:18;9.80;99.90
51765;DHT22;37835;53.256;6.456;2024-03-22T08:39:43;9.70;99.90
51765;DHT22;37835;53.256;6.456;2024-03-22T08:42:09;9.80;99.90
51765;DHT22;37835;53.256;6.456;2024-03-22T08:44:35;9.70;99.90
51765;DHT22;37835;53.256;6.456;2024-03-22T08:47:01;9.80;99.90
51765;DHT22;37835;53.256;6.456;2024-03-22T08:49:27;9.80;99.90
51765;DHT22;37835;53.256;6.456;2024-03-22T08:51:52;9.80;99.90
51765;DHT22;37835;53.256;6.456;2024-03-22T08:54:18;9.80;99.90
51765;DHT22;37835;53.256;6.456;2024-03-22T08:56:44;9.70;99.90
51765;DHT22;37835;53.256;6.456;2024-03-22T08:59:09;9.80;99.90
51765;DHT22;37835;53.256;6.456;2024-03-22T09:01:36;9.80;99.90
51765;DHT22;37835;53.256;6.456;2024-03-22T09:04:02;9.70;99.90
51765;DHT22;37835;53.256;6.456;2024-03-22T09:06:28;9.80;99.90
51765;DHT22;37835;53.256;6.456;2024-03-22T09:08:54;9.80;99.90
51765;DHT22;37835;53.256;6.456;2024-03-22T09:11:23;9.80;99.90
51765;DHT22;37835;53.256;6.456;2024-03-22T09:13:54;9.90;99.90
51765;DHT22;37835;53.256;6.456;2024-03-22T09:16:23;9.80;99.90
51765;DHT22;37835;53.256;6.456;2024-03-22T09:18:49;9.80;99.90
51765;DHT22;37835;53.256;6.456;2024-03-22T09:21:15;9.70;99.90
51765;DHT22;37835;53.256;6.456;2024-03-22T09:23:40;9.80;99.90
51765;DHT22;37835;53.256;6.456;2024-03-22T09:26:06;9.70;99.90
51765;DHT22;37835;53.256;6.456;2024-03-22T09:28:32;9.80;99.90
51765;DHT22;37835;53.256;6.456;2024-03-22T09:30:57;9.70;99.90
51765;DHT22;37835;53.256;6.456;2024-03-22T09:33:23;9.80;99.90
51765;DHT22;37835;53.256;6.456;2024-03-22T09:35:49;9.80;99.90
51765;DHT22;37835;53.256;6.456;2024-03-22T09:38:14;9.80;99.90
51765;DHT22;37835;53.256;6.456;2024-03-22T09:40:41;9.80;99.90
51765;DHT22;37835;53.256;6.456;2024-03-22T09:43:07;9.80;99.90
51765;DHT22;37835;53.256;6.456;2024-03-22T09:45:35;9.70;99.90
51765;DHT22;37835;53.256;6.456;2024-03-22T09:48:01;9.70;99.90
51765;DHT22;37835;53.256;6.456;2024-03-22T09:50:28;9.80;99.90
51765;DHT22;37835;53.256;6.456;2024-03-22T09:52:56;9.70;99.90
51765;DHT22;37835;53.256;6.456;2024-03-22T09:55:25;9.70;99.90
51765;DHT22;37835;53.256;6.456;2024-03-22T09:57:51;9.70;99.90
51765;DHT22;37835;53.256;6.456;2024-03-22T10:00:19;9.70;99.90
51765;DHT22;37835;53.256;6.456;2024-03-22T10:02:49;9.70;99.90
51765;DHT22;37835;53.256;6.456;2024-03-22T10:05:15;9.70;99.90
51765;DHT22;37835;53.256;6.456;2024-03-22T10:07:43;9.70;99.90
51765;DHT22;37835;53.256;6.456;2024-03-22T10:10:09;9.70;99.90
51765;DHT22;37835;53.256;6.456;2024-03-22T10:12:36;9.70;99.90
51765;DHT22;37835;53.256;6.456;2024-03-22T10:15:02;9.70;99.90
51765;DHT22;37835;53.256;6.456;2024-03-22T10:17:29;9.70;99.90
51765;DHT22;37835;53.256;6.456;2024-03-22T10:19:55;9.70;99.90
51765;DHT22;37835;53.256;6.456;2024-03-22T10:22:21;9.80;99.90
51765;DHT22;37835;53.256;6.456;2024-03-22T10:24:47;9.80;99.90
51765;DHT22;37835;53.256;6.456;2024-03-22T10:27:13;9.80;99.90
51765;DHT22;37835;53.256;6.456;2024-03-22T10:29:39;9.80;99.90
51765;DHT22;37835;53.256;6.456;2024-03-22T10:32:05;9.80;99.90
51765;DHT22;37835;53.256;6.456;2024-03-22T10:34:32;9.80;99.90
51765;DHT22;37835;53.256;6.456;2024-03-22T10:37:01;9.70;99.90
51765;DHT22;37835;53.256;6.456;2024-03-22T10:39:28;9.70;99.90
51765;DHT22;37835;53.256;6.456;2024-03-22T10:41:54;8.30;99.90
51765;DHT22;37835;53.256;6.456;2024-03-22T10:44:19;9.80;99.90
51765;DHT22;37835;53.256;6.456;2024-03-22T10:46:47;9.80;99.90
51765;DHT22;37835;53.256;6.456;2024-03-22T10:49:16;9.80;99.90
51765;DHT22;37835;53.256;6.456;2024-03-22T10:51:51;9.80;99.90
51765;DHT22;37835;53.256;6.456;2024-03-22T10:54:24;9.80;99.90
51765;DHT22;37835;53.256;6.456;2024-03-22T10:56:51;9.80;99.90
51765;DHT22;37835;53.256;6.456;2024-03-22T10:59:22;9.80;99.90
51765;DHT22;37835;53.256;6.456;2024-03-22T11:01:49;9.80;99.90
51765;DHT22;37835;53.256;6.456;2024-03-22T11:04:20;9.80;99.90
51765;DHT22;37835;53.256;6.456;2024-03-22T11:06:49;9.80;99.90
51765;DHT22;37835;53.256;6.456;2024-03-22T11:09:22;9.80;99.90
51765;DHT22;37835;53.256;6.456;2024-03-22T11:11:48;10.10;99.90
51765;DHT22;37835;53.256;6.456;2024-03-22T11:14:14;9.80;99.90
51765;DHT22;37835;53.256;6.456;2024-03-22T11:16:43;9.90;99.90
51765;DHT22;37835;53.256;6.456;2024-03-22T11:19:09;9.90;99.90
51765;DHT22;37835;53.256;6.456;2024-03-22T11:21:35;9.90;99.90
51765;DHT22;37835;53.256;6.456;2024-03-22T11:24:01;9.90;99.90
51765;DHT22;37835;53.256;6.456;2024-03-22T11:26:27;9.90;99.90
51765;DHT22;37835;53.256;6.456;2024-03-22T11:28:53;10.40;99.90
51765;DHT22;37835;53.256;6.456;2024-03-22T11:31:18;9.90;99.90
51765;DHT22;37835;53.256;6.456;2024-03-22T11:33:47;9.90;99.90
51765;DHT22;37835;53.256;6.456;2024-03-22T11:36:14;9.90;99.90
51765;DHT22;37835;53.256;6.456;2024-03-22T11:38:39;9.90;99.90
51765;DHT22;37835;53.256;6.456;2024-03-22T11:41:05;9.90;99.90
51765;DHT22;37835;53.256;6.456;2024-03-22T11:43:32;9.90;99.90
51765;DHT22;37835;53.256;6.456;2024-03-22T11:45:58;9.80;99.90
51765;DHT22;37835;53.256;6.456;2024-03-22T11:48:25;9.90;99.90
51765;DHT22;37835;53.256;6.456;2024-03-22T11:50:50;9.80;99.90
51765;DHT22;37835;53.256;6.456;2024-03-22T11:53:17;9.80;99.90
51765;DHT22;37835;53.256;6.456;2024-03-22T11:55:43;9.80;99.90
51765;DHT22;37835;53.256;6.456;2024-03-22T11:58:11;9.80;99.90
51765;DHT22;37835;53.256;6.456;2024-03-22T12:00:38;9.80;99.90
51765;DHT22;37835;53.256;6.456;2024-03-22T12:03:06;9.80;99.90
51765;DHT22;37835;53.256;6.456;2024-03-22T12:05:32;9.80;99.90
51765;DHT22;37835;53.256;6.456;2024-03-22T12:07:58;9.70;99.90
51765;DHT22;37835;53.256;6.456;2024-03-22T12:10:24;9.70;99.90
51765;DHT22;37835;53.256;6.456;2024-03-22T12:12:49;9.70;99.90
51765;DHT22;37835;53.256;6.456;2024-03-22T12:15:15;9.70;99.90
51765;DHT22;37835;53.256;6.456;2024-03-22T12:17:40;9.80;99.90
51765;DHT22;37835;53.256;6.456;2024-03-22T12:20:09;9.80;99.90
51765;DHT22;37835;53.256;6.456;2024-03-22T12:22:35;9.80;99.90
51765;DHT22;37835;53.256;6.456;2024-03-22T12:25:01;9.80;99.90
51765;DHT22;37835;53.256;6.456;2024-03-22T12:27:27;9.80;99.90
51765;DHT22;37835;53.256;6.456;2024-03-22T12:29:53;9.90;99.90
51765;DHT22;37835;53.256;6.456;2024-03-22T12:32:18;10.00;99.90
51765;DHT22;37835;53.256;6.456;2024-03-22T12:34:44;10.00;99.90
51765;DHT22;37835;53.256;6.456;2024-03-22T12:37:10;10.10;99.90
51765;DHT22;37835;53.256;6.456;2024-03-22T12:39:36;10.10;99.90
51765;DHT22;37835;53.256;6.456;2024-03-22T12:42:02;10.10;99.90
51765;DHT22;37835;53.256;6.456;2024-03-22T12:44:28;10.20;99.90
51765;DHT22;37835;53.256;6.456;2024-03-22T12:46:54;10.20;99.90
51765;DHT22;37835;53.256;6.456;2024-03-22T12:49:21;10.20;99.90
51765;DHT22;37835;53.256;6.456;2024-03-22T12:51:47;10.20;99.90
51765;DHT22;37835;53.256;6.456;2024-03-22T12:54:13;10.20;99.90
51765;DHT22;37835;53.256;6.456;2024-03-22T12:56:40;10.20;99.90
51765;DHT22;37835;53.256;6.456;2024-03-22T12:59:06;10.20;99.90
51765;DHT22;37835;53.256;6.456;2024-03-22T13:01:33;10.20;99.90
51765;DHT22;37835;53.256;6.456;2024-03-22T13:03:59;10.30;99.90
51765;DHT22;37835;53.256;6.456;2024-03-22T13:06:25;10.30;99.90
51765;DHT22;37835;53.256;6.456;2024-03-22T13:08:50;10.30;99.90
51765;DHT22;37835;53.256;6.456;2024-03-22T13:11:16;10.30;99.90
51765;DHT22;37835;53.256;6.456;2024-03-22T13:13:43;10.30;99.90
51765;DHT22;37835;53.256;6.456;2024-03-22T13:16:09;10.30;99.90
51765;DHT22;37835;53.256;6.456;2024-03-22T13:18:37;10.30;99.90
51765;DHT22;37835;53.256;6.456;2024-03-22T13:21:03;10.30;99.90
51765;DHT22;37835;53.256;6.456;2024-03-22T13:23:30;10.30;99.90
51765;DHT22;37835;53.256;6.456;2024-03-22T13:25:56;10.30;99.90
51765;DHT22;37835;53.256;6.456;2024-03-22T13:28:24;10.30;99.90
51765;DHT22;37835;53.256;6.456;2024-03-22T13:31:02;10.30;99.90
51765;DHT22;37835;53.256;6.456;2024-03-22T13:33:29;10.30;99.90
51765;DHT22;37835;53.256;6.456;2024-03-22T13:35:55;10.20;99.90
51765;DHT22;37835;53.256;6.456;2024-03-22T13:38:21;10.20;99.90
51765;DHT22;37835;53.256;6.456;2024-03-22T13:40:57;10.10;99.90
51765;DHT22;37835;53.256;6.456;2024-03-22T13:43:25;10.10;99.90
51765;DHT22;37835;53.256;6.456;2024-03-22T13:45:52;10.10;99.90
51765;DHT22;37835;53.256;6.456;2024-03-22T13:48:22;10.10;99.90
51765;DHT22;37835;53.256;6.456;2024-03-22T13:50:54;10.00;99.90
51765;DHT22;37835;53.256;6.456;2024-03-22T13:53:21;10.00;99.90
51765;DHT22;37835;53.256;6.456;2024-03-22T13:55:50;10.00;99.90
51765;DHT22;37835;53.256;6.456;2024-03-22T13:58:16;10.00;99.90
51765;DHT22;37835;53.256;6.456;2024-03-22T14:00:42;10.00;99.90
51765;DHT22;37835;53.256;6.456;2024-03-22T14:03:08;9.30;99.90
51765;DHT22;37835;53.256;6.456;2024-03-22T14:05:34;9.90;99.90
51765;DHT22;37835;53.256;6.456;2024-03-22T14:07:59;9.90;99.90
51765;DHT22;37835;53.256;6.456;2024-03-22T14:10:25;9.90;99.90
51765;DHT22;37835;53.256;6.456;2024-03-22T14:12:53;10.50;99.90
51765;DHT22;37835;53.256;6.456;2024-03-22T14:15:19;9.80;99.90
51765;DHT22;37835;53.256;6.456;2024-03-22T14:17:45;9.80;99.90
51765;DHT22;37835;53.256;6.456;2024-03-22T14:20:11;9.80;99.90
51765;DHT22;37835;53.256;6.456;2024-03-22T14:22:42;9.80;99.90
51765;DHT22;37835;53.256;6.456;2024-03-22T14:25:08;9.70;99.90
51765;DHT22;37835;53.256;6.456;2024-03-22T14:27:35;9.70;99.90
51765;DHT22;37835;53.256;6.456;2024-03-22T14:30:01;9.70;99.90
51765;DHT22;37835;53.256;6.456;2024-03-22T14:32:31;9.50;99.90
51765;DHT22;37835;53.256;6.456;2024-03-22T14:34:57;9.60;99.90
51765;DHT22;37835;53.256;6.456;2024-03-22T14:37:23;9.60;99.90
51765;DHT22;37835;53.256;6.456;2024-03-22T14:39:49;9.60;99.90
51765;DHT22;37835;53.256;6.456;2024-03-22T14:42:14;9.60;99.90
51765;DHT22;37835;53.256;6.456;2024-03-22T14:44:40;9.60;99.90
51765;DHT22;37835;53.256;6.456;2024-03-22T14:47:06;9.60;99.90
51765;DHT22;37835;53.256;6.456;2024-03-22T14:49:32;9.60;99.90
51765;DHT22;37835;53.256;6.456;2024-03-22T14:51:57;9.60;99.90
51765;DHT22;37835;53.256;6.456;2024-03-22T14:54:23;9.60;99.90
51765;DHT22;37835;53.256;6.456;2024-03-22T14:56:49;9.50;99.90
51765;DHT22;37835;53.256;6.456;2024-03-22T14:59:14;9.50;99.90
51765;DHT22;37835;53.256;6.456;2024-03-22T15:01:40;9.50;99.90
51765;DHT22;37835;53.256;6.456;2024-03-22T15:04:06;9.50;99.90
51765;DHT22;37835;53.256;6.456;2024-03-22T15:06:32;9.50;99.90
51765;DHT22;37835;53.256;6.456;2024-03-22T15:08:58;9.40;99.90
51765;DHT22;37835;53.256;6.456;2024-03-22T15:11:24;9.40;99.90
51765;DHT22;37835;53.256;6.456;2024-03-22T15:13:50;9.40;99.90
51765;DHT22;37835;53.256;6.456;2024-03-22T15:16:15;9.40;99.90
51765;DHT22;37835;53.256;6.456;2024-03-22T15:18:41;9.40;99.90
51765;DHT22;37835;53.256;6.456;2024-03-22T15:21:08;9.40;99.90
51765;DHT22;37835;53.256;6.456;2024-03-22T15:23:34;9.30;99.90
51765;DHT22;37835;53.256;6.456;2024-03-22T15:26:00;9.30;99.90
51765;DHT22;37835;53.256;6.456;2024-03-22T15:28:25;9.40;99.90
51765;DHT22;37835;53.256;6.456;2024-03-22T15:30:52;9.30;99.90
51765;DHT22;37835;53.256;6.456;2024-03-22T15:33:17;11.70;99.90